sensor_id;sensor_type;location;lat;lon;timestamp;P1;durP1;ratioP1;P2;durP2;ratioP2
76850;SDS011;65824;43.726;20.692;2023-08-08T00:01:24;4.97;;;3.10;;
76850;SDS011;65824;43.726;20.692;2023-08-08T00:03:49;4.50;;;3.03;;
76850;SDS011;65824;43.726;20.692;2023-08-08T00:06:15;5.63;;;2.72;;
76850;SDS011;65824;43.726;20.692;2023-08-08T00:08:41;6.00;;;3.00;;
76850;SDS011;65824;43.726;20.692;2023-08-08T00:11:06;6.18;;;3.05;;
76850;SDS011;65824;43.726;20.692;2023-08-08T00:13:31;5.78;;;2.97;;
76850;SDS011;65824;43.726;20.692;2023-08-08T00:15:57;6.00;;;3.00;;
76850;SDS011;65824;43.726;20.692;2023-08-08T00:18:22;5.22;;;2.90;;
76850;SDS011;65824;43.726;20.692;2023-08-08T00:20:48;5.75;;;2.55;;
76850;SDS011;65824;43.726;20.692;2023-08-08T00:23:13;6.03;;;3.05;;
76850;SDS011;65824;43.726;20.692;2023-08-08T00:25:39;4.38;;;2.45;;
76850;SDS011;65824;43.726;20.692;2023-08-08T00:28:06;4.25;;;2.42;;
76850;SDS011;65824;43.726;20.692;2023-08-08T00:30:31;3.90;;;2.70;;
76850;SDS011;65824;43.726;20.692;2023-08-08T00:32:57;5.55;;;2.80;;
76850;SDS011;65824;43.726;20.692;2023-08-08T00:35:22;6.85;;;2.80;;
76850;SDS011;65824;43.726;20.692;2023-08-08T00:37:48;4.43;;;2.80;;
76850;SDS011;65824;43.726;20.692;2023-08-08T00:40:13;4.88;;;3.38;;
76850;SDS011;65824;43.726;20.692;2023-08-08T00:42:39;5.80;;;3.75;;
76850;SDS011;65824;43.726;20.692;2023-08-08T00:45:05;6.90;;;4.30;;
76850;SDS011;65824;43.726;20.692;2023-08-08T00:47:34;6.95;;;4.05;;
76850;SDS011;65824;43.726;20.692;2023-08-08T00:50:00;5.55;;;3.30;;
76850;SDS011;65824;43.726;20.692;2023-08-08T00:52:27;8.00;;;3.78;;
76850;SDS011;65824;43.726;20.692;2023-08-08T00:54:53;4.93;;;3.05;;
76850;SDS011;65824;43.726;20.692;2023-08-08T00:57:19;5.63;;;3.28;;
76850;SDS011;65824;43.726;20.692;2023-08-08T00:59:45;4.60;;;3.03;;
76850;SDS011;65824;43.726;20.692;2023-08-08T01:02:11;7.15;;;3.50;;
76850;SDS011;65824;43.726;20.692;2023-08-08T01:04:37;8.07;;;3.17;;
76850;SDS011;65824;43.726;20.692;2023-08-08T01:07:06;6.28;;;3.60;;
76850;SDS011;65824;43.726;20.692;2023-08-08T01:09:58;6.03;;;3.13;;
76850;SDS011;65824;43.726;20.692;2023-08-08T01:12:32;5.65;;;3.20;;
76850;SDS011;65824;43.726;20.692;2023-08-08T01:14:59;6.38;;;3.35;;
76850;SDS011;65824;43.726;20.692;2023-08-08T01:17:25;9.05;;;3.40;;
76850;SDS011;65824;43.726;20.692;2023-08-08T01:19:51;6.43;;;3.40;;
76850;SDS011;65824;43.726;20.692;2023-08-08T01:22:24;5.20;;;3.10;;
76850;SDS011;65824;43.726;20.692;2023-08-08T01:24:53;5.43;;;2.88;;
76850;SDS011;65824;43.726;20.692;2023-08-08T01:27:19;6.00;;;3.10;;
76850;SDS011;65824;43.726;20.692;2023-08-08T01:29:44;6.65;;;2.95;;
76850;SDS011;65824;43.726;20.692;2023-08-08T01:32:10;7.43;;;3.35;;
76850;SDS011;65824;43.726;20.692;2023-08-08T01:34:36;4.25;;;2.67;;
76850;SDS011;65824;43.726;20.692;2023-08-08T01:37:24;7.13;;;2.83;;
76850;SDS011;65824;43.726;20.692;2023-08-08T01:39:55;5.25;;;3.20;;
76850;SDS011;65824;43.726;20.692;2023-08-08T01:42:23;6.25;;;2.70;;
76850;SDS011;65824;43.726;20.692;2023-08-08T01:44:51;4.88;;;2.60;;
76850;SDS011;65824;43.726;20.692;2023-08-08T01:47:18;6.75;;;2.53;;
76850;SDS011;65824;43.726;20.692;2023-08-08T01:49:44;5.50;;;2.72;;
76850;SDS011;65824;43.726;20.692;2023-08-08T01:52:10;5.63;;;2.47;;
76850;SDS011;65824;43.726;20.692;2023-08-08T01:54:37;6.20;;;2.63;;
76850;SDS011;65824;43.726;20.692;2023-08-08T01:57:03;4.63;;;2.60;;
76850;SDS011;65824;43.726;20.692;2023-08-08T01:59:29;8.10;;;3.10;;
76850;SDS011;65824;43.726;20.692;2023-08-08T02:01:54;6.30;;;2.50;;
76850;SDS011;65824;43.726;20.692;2023-08-08T02:04:20;4.13;;;2.60;;
76850;SDS011;65824;43.726;20.692;2023-08-08T02:06:46;3.28;;;2.10;;
76850;SDS011;65824;43.726;20.692;2023-08-08T02:09:11;5.45;;;2.45;;
76850;SDS011;65824;43.726;20.692;2023-08-08T02:11:40;5.45;;;2.60;;
76850;SDS011;65824;43.726;20.692;2023-08-08T02:14:06;3.72;;;2.30;;
76850;SDS011;65824;43.726;20.692;2023-08-08T02:16:32;7.10;;;2.40;;
76850;SDS011;65824;43.726;20.692;2023-08-08T02:18:57;5.30;;;2.45;;
76850;SDS011;65824;43.726;20.692;2023-08-08T02:21:23;5.57;;;2.30;;
76850;SDS011;65824;43.726;20.692;2023-08-08T02:23:49;5.32;;;2.30;;
76850;SDS011;65824;43.726;20.692;2023-08-08T02:26:14;7.13;;;2.20;;
76850;SDS011;65824;43.726;20.692;2023-08-08T02:28:40;3.25;;;2.03;;
76850;SDS011;65824;43.726;20.692;2023-08-08T02:31:06;5.28;;;2.50;;
76850;SDS011;65824;43.726;20.692;2023-08-08T02:33:31;4.20;;;2.03;;
76850;SDS011;65824;43.726;20.692;2023-08-08T02:35:57;6.15;;;1.98;;
76850;SDS011;65824;43.726;20.692;2023-08-08T02:38:23;5.40;;;2.20;;
76850;SDS011;65824;43.726;20.692;2023-08-08T02:40:49;4.10;;;2.10;;
76850;SDS011;65824;43.726;20.692;2023-08-08T02:43:15;5.72;;;2.17;;
76850;SDS011;65824;43.726;20.692;2023-08-08T02:45:41;3.85;;;1.92;;
76850;SDS011;65824;43.726;20.692;2023-08-08T02:48:07;3.53;;;2.00;;
76850;SDS011;65824;43.726;20.692;2023-08-08T02:50:35;3.35;;;1.92;;
76850;SDS011;65824;43.726;20.692;2023-08-08T02:53:01;5.50;;;1.80;;
76850;SDS011;65824;43.726;20.692;2023-08-08T02:55:27;4.85;;;2.00;;
76850;SDS011;65824;43.726;20.692;2023-08-08T02:57:53;4.30;;;2.10;;
76850;SDS011;65824;43.726;20.692;2023-08-08T03:00:19;4.45;;;1.90;;
76850;SDS011;65824;43.726;20.692;2023-08-08T03:02:44;4.93;;;2.30;;
76850;SDS011;65824;43.726;20.692;2023-08-08T03:05:10;7.28;;;3.40;;
76850;SDS011;65824;43.726;20.692;2023-08-08T03:07:36;5.95;;;2.95;;
76850;SDS011;65824;43.726;20.692;2023-08-08T03:10:02;6.35;;;2.72;;
76850;SDS011;65824;43.726;20.692;2023-08-08T03:12:28;7.28;;;2.67;;
76850;SDS011;65824;43.726;20.692;2023-08-08T03:14:54;5.10;;;1.65;;
76850;SDS011;65824;43.726;20.692;2023-08-08T03:17:21;3.25;;;1.60;;
76850;SDS011;65824;43.726;20.692;2023-08-08T03:19:47;3.75;;;1.60;;
76850;SDS011;65824;43.726;20.692;2023-08-08T03:22:15;3.30;;;1.65;;
76850;SDS011;65824;43.726;20.692;2023-08-08T03:24:41;4.38;;;2.20;;
76850;SDS011;65824;43.726;20.692;2023-08-08T03:27:06;4.40;;;1.88;;
76850;SDS011;65824;43.726;20.692;2023-08-08T03:29:32;6.78;;;2.10;;
76850;SDS011;65824;43.726;20.692;2023-08-08T03:31:58;3.90;;;1.70;;
76850;SDS011;65824;43.726;20.692;2023-08-08T03:34:23;5.43;;;1.88;;
76850;SDS011;65824;43.726;20.692;2023-08-08T03:36:49;3.85;;;1.90;;
76850;SDS011;65824;43.726;20.692;2023-08-08T03:39:15;5.35;;;1.75;;
76850;SDS011;65824;43.726;20.692;2023-08-08T03:41:40;5.43;;;2.30;;
76850;SDS011;65824;43.726;20.692;2023-08-08T03:44:06;3.85;;;2.00;;
76850;SDS011;65824;43.726;20.692;2023-08-08T03:46:31;3.95;;;1.98;;
76850;SDS011;65824;43.726;20.692;2023-08-08T03:48:59;4.22;;;2.00;;
76850;SDS011;65824;43.726;20.692;2023-08-08T03:51:24;8.98;;;2.00;;
76850;SDS011;65824;43.726;20.692;2023-08-08T03:53:52;3.85;;;2.10;;
76850;SDS011;65824;43.726;20.692;2023-08-08T03:56:17;5.05;;;2.00;;
76850;SDS011;65824;43.726;20.692;2023-08-08T03:58:43;3.60;;;2.00;;
76850;SDS011;65824;43.726;20.692;2023-08-08T04:01:08;5.15;;;2.03;;
76850;SDS011;65824;43.726;20.692;2023-08-08T04:03:34;4.43;;;1.92;;
76850;SDS011;65824;43.726;20.692;2023-08-08T04:06:02;5.35;;;2.13;;
76850;SDS011;65824;43.726;20.692;2023-08-08T04:08:28;4.50;;;2.10;;
76850;SDS011;65824;43.726;20.692;2023-08-08T04:10:53;4.32;;;2.33;;
76850;SDS011;65824;43.726;20.692;2023-08-08T04:13:19;4.95;;;2.15;;
76850;SDS011;65824;43.726;20.692;2023-08-08T04:15:44;4.68;;;2.10;;
76850;SDS011;65824;43.726;20.692;2023-08-08T04:18:11;5.65;;;2.30;;
76850;SDS011;65824;43.726;20.692;2023-08-08T04:20:37;6.07;;;2.40;;
76850;SDS011;65824;43.726;20.692;2023-08-08T04:23:03;5.47;;;2.20;;
76850;SDS011;65824;43.726;20.692;2023-08-08T04:25:29;7.93;;;2.28;;
76850;SDS011;65824;43.726;20.692;2023-08-08T04:28:00;6.03;;;2.30;;
76850;SDS011;65824;43.726;20.692;2023-08-08T04:30:25;6.25;;;2.20;;
76850;SDS011;65824;43.726;20.692;2023-08-08T04:32:52;4.30;;;2.05;;
76850;SDS011;65824;43.726;20.692;2023-08-08T04:35:17;5.50;;;2.67;;
76850;SDS011;65824;43.726;20.692;2023-08-08T04:37:43;4.25;;;2.25;;
76850;SDS011;65824;43.726;20.692;2023-08-08T04:40:08;4.25;;;2.30;;
76850;SDS011;65824;43.726;20.692;2023-08-08T04:42:35;5.18;;;2.60;;
76850;SDS011;65824;43.726;20.692;2023-08-08T04:45:00;7.72;;;2.22;;
76850;SDS011;65824;43.726;20.692;2023-08-08T04:47:26;5.65;;;2.35;;
76850;SDS011;65824;43.726;20.692;2023-08-08T04:49:53;3.88;;;2.10;;
76850;SDS011;65824;43.726;20.692;2023-08-08T04:52:19;4.57;;;2.13;;
76850;SDS011;65824;43.726;20.692;2023-08-08T04:54:44;3.72;;;1.95;;
76850;SDS011;65824;43.726;20.692;2023-08-08T04:57:14;4.22;;;2.00;;
76850;SDS011;65824;43.726;20.692;2023-08-08T04:59:40;9.57;;;2.28;;
76850;SDS011;65824;43.726;20.692;2023-08-08T05:02:07;3.58;;;2.03;;
76850;SDS011;65824;43.726;20.692;2023-08-08T05:04:33;5.25;;;2.03;;
76850;SDS011;65824;43.726;20.692;2023-08-08T05:06:58;6.00;;;2.35;;
76850;SDS011;65824;43.726;20.692;2023-08-08T05:09:24;4.10;;;2.25;;
76850;SDS011;65824;43.726;20.692;2023-08-08T05:11:51;6.07;;;2.40;;
76850;SDS011;65824;43.726;20.692;2023-08-08T05:14:18;4.95;;;2.40;;
76850;SDS011;65824;43.726;20.692;2023-08-08T05:16:44;4.85;;;2.40;;
76850;SDS011;65824;43.726;20.692;2023-08-08T05:19:09;6.05;;;2.50;;
76850;SDS011;65824;43.726;20.692;2023-08-08T05:21:36;5.75;;;2.30;;
76850;SDS011;65824;43.726;20.692;2023-08-08T05:24:01;3.78;;;1.92;;
76850;SDS011;65824;43.726;20.692;2023-08-08T05:26:27;6.88;;;2.40;;
76850;SDS011;65824;43.726;20.692;2023-08-08T05:28:53;6.00;;;2.35;;
76850;SDS011;65824;43.726;20.692;2023-08-08T05:31:18;5.30;;;2.05;;
76850;SDS011;65824;43.726;20.692;2023-08-08T05:33:47;4.25;;;2.08;;
76850;SDS011;65824;43.726;20.692;2023-08-08T05:36:13;5.70;;;2.42;;
76850;SDS011;65824;43.726;20.692;2023-08-08T05:38:39;7.22;;;2.63;;
76850;SDS011;65824;43.726;20.692;2023-08-08T05:41:05;6.00;;;2.40;;
76850;SDS011;65824;43.726;20.692;2023-08-08T05:43:31;3.75;;;2.22;;
76850;SDS011;65824;43.726;20.692;2023-08-08T05:45:56;4.55;;;2.75;;
76850;SDS011;65824;43.726;20.692;2023-08-08T05:48:23;4.50;;;2.40;;
76850;SDS011;65824;43.726;20.692;2023-08-08T05:50:48;4.75;;;2.30;;
76850;SDS011;65824;43.726;20.692;2023-08-08T05:53:14;5.50;;;2.38;;
76850;SDS011;65824;43.726;20.692;2023-08-08T05:55:40;4.90;;;2.45;;
76850;SDS011;65824;43.726;20.692;2023-08-08T05:58:08;5.57;;;2.50;;
76850;SDS011;65824;43.726;20.692;2023-08-08T06:00:34;5.45;;;2.67;;
76850;SDS011;65824;43.726;20.692;2023-08-08T06:03:00;3.85;;;2.13;;
76850;SDS011;65824;43.726;20.692;2023-08-08T06:05:25;6.90;;;2.60;;
76850;SDS011;65824;43.726;20.692;2023-08-08T06:07:51;4.32;;;2.50;;
76850;SDS011;65824;43.726;20.692;2023-08-08T06:10:17;4.10;;;2.15;;
76850;SDS011;65824;43.726;20.692;2023-08-08T06:12:43;4.90;;;2.78;;
76850;SDS011;65824;43.726;20.692;2023-08-08T06:15:09;5.70;;;2.97;;
76850;SDS011;65824;43.726;20.692;2023-08-08T06:17:35;6.25;;;3.58;;
76850;SDS011;65824;43.726;20.692;2023-08-08T06:20:00;9.57;;;3.30;;
76850;SDS011;65824;43.726;20.692;2023-08-08T06:22:26;4.47;;;2.63;;
76850;SDS011;65824;43.726;20.692;2023-08-08T06:24:51;5.82;;;2.70;;
76850;SDS011;65824;43.726;20.692;2023-08-08T06:27:17;6.60;;;2.42;;
76850;SDS011;65824;43.726;20.692;2023-08-08T06:29:43;5.20;;;2.72;;
76850;SDS011;65824;43.726;20.692;2023-08-08T06:32:09;6.18;;;2.70;;
76850;SDS011;65824;43.726;20.692;2023-08-08T06:34:34;6.00;;;3.00;;
76850;SDS011;65824;43.726;20.692;2023-08-08T06:37:00;7.82;;;4.00;;
76850;SDS011;65824;43.726;20.692;2023-08-08T06:39:25;5.32;;;2.40;;
76850;SDS011;65824;43.726;20.692;2023-08-08T06:41:51;4.30;;;2.30;;
76850;SDS011;65824;43.726;20.692;2023-08-08T06:44:17;4.30;;;1.85;;
76850;SDS011;65824;43.726;20.692;2023-08-08T06:46:42;4.95;;;2.03;;
76850;SDS011;65824;43.726;20.692;2023-08-08T06:49:07;4.28;;;2.15;;
76850;SDS011;65824;43.726;20.692;2023-08-08T06:51:34;4.22;;;2.13;;
76850;SDS011;65824;43.726;20.692;2023-08-08T06:54:02;4.95;;;1.80;;
76850;SDS011;65824;43.726;20.692;2023-08-08T06:56:28;6.53;;;2.55;;
76850;SDS011;65824;43.726;20.692;2023-08-08T06:58:58;5.38;;;2.53;;
76850;SDS011;65824;43.726;20.692;2023-08-08T07:01:23;3.83;;;1.90;;
76850;SDS011;65824;43.726;20.692;2023-08-08T07:03:49;6.35;;;2.72;;
76850;SDS011;65824;43.726;20.692;2023-08-08T07:06:16;3.83;;;1.50;;
76850;SDS011;65824;43.726;20.692;2023-08-08T07:08:43;5.55;;;2.00;;
76850;SDS011;65824;43.726;20.692;2023-08-08T07:11:08;5.07;;;2.17;;
76850;SDS011;65824;43.726;20.692;2023-08-08T07:13:35;4.55;;;1.55;;
76850;SDS011;65824;43.726;20.692;2023-08-08T07:16:01;4.75;;;2.10;;
76850;SDS011;65824;43.726;20.692;2023-08-08T07:18:28;4.45;;;1.83;;
76850;SDS011;65824;43.726;20.692;2023-08-08T07:20:53;4.20;;;1.77;;
76850;SDS011;65824;43.726;20.692;2023-08-08T07:23:19;5.65;;;2.20;;
76850;SDS011;65824;43.726;20.692;2023-08-08T07:25:45;3.00;;;1.52;;
76850;SDS011;65824;43.726;20.692;2023-08-08T07:28:11;4.80;;;2.17;;
76850;SDS011;65824;43.726;20.692;2023-08-08T07:30:40;3.45;;;1.48;;
76850;SDS011;65824;43.726;20.692;2023-08-08T07:33:06;3.92;;;1.63;;
76850;SDS011;65824;43.726;20.692;2023-08-08T07:35:34;3.00;;;1.50;;
76850;SDS011;65824;43.726;20.692;2023-08-08T07:38:00;7.47;;;2.13;;
76850;SDS011;65824;43.726;20.692;2023-08-08T07:40:28;2.70;;;1.30;;
76850;SDS011;65824;43.726;20.692;2023-08-08T07:42:53;4.03;;;1.50;;
76850;SDS011;65824;43.726;20.692;2023-08-08T07:45:19;3.53;;;1.40;;
76850;SDS011;65824;43.726;20.692;2023-08-08T07:47:46;2.95;;;1.20;;
76850;SDS011;65824;43.726;20.692;2023-08-08T07:50:14;3.85;;;1.38;;
76850;SDS011;65824;43.726;20.692;2023-08-08T07:52:39;2.65;;;1.23;;
76850;SDS011;65824;43.726;20.692;2023-08-08T07:55:05;3.28;;;1.42;;
76850;SDS011;65824;43.726;20.692;2023-08-08T07:57:31;5.18;;;2.05;;
76850;SDS011;65824;43.726;20.692;2023-08-08T07:59:59;6.88;;;2.17;;
76850;SDS011;65824;43.726;20.692;2023-08-08T08:02:31;5.57;;;2.00;;
76850;SDS011;65824;43.726;20.692;2023-08-08T08:04:57;4.50;;;2.20;;
76850;SDS011;65824;43.726;20.692;2023-08-08T08:07:22;2.97;;;1.63;;
76850;SDS011;65824;43.726;20.692;2023-08-08T08:09:48;3.55;;;1.55;;
76850;SDS011;65824;43.726;20.692;2023-08-08T08:12:14;3.20;;;1.40;;
76850;SDS011;65824;43.726;20.692;2023-08-08T08:14:39;3.20;;;1.20;;
76850;SDS011;65824;43.726;20.692;2023-08-08T08:17:05;3.00;;;1.30;;
76850;SDS011;65824;43.726;20.692;2023-08-08T08:19:32;3.05;;;1.40;;
76850;SDS011;65824;43.726;20.692;2023-08-08T08:21:57;3.53;;;1.60;;
76850;SDS011;65824;43.726;20.692;2023-08-08T08:24:23;3.05;;;1.40;;
76850;SDS011;65824;43.726;20.692;2023-08-08T08:26:49;5.82;;;1.50;;
76850;SDS011;65824;43.726;20.692;2023-08-08T08:29:16;3.03;;;1.13;;
76850;SDS011;65824;43.726;20.692;2023-08-08T08:31:43;3.30;;;1.38;;
76850;SDS011;65824;43.726;20.692;2023-08-08T08:34:09;3.42;;;1.80;;
76850;SDS011;65824;43.726;20.692;2023-08-08T08:36:34;3.33;;;1.20;;
76850;SDS011;65824;43.726;20.692;2023-08-08T08:39:01;4.50;;;2.15;;
76850;SDS011;65824;43.726;20.692;2023-08-08T08:41:27;3.25;;;1.70;;
76850;SDS011;65824;43.726;20.692;2023-08-08T08:43:54;3.60;;;1.40;;
76850;SDS011;65824;43.726;20.692;2023-08-08T08:46:22;3.85;;;1.42;;
76850;SDS011;65824;43.726;20.692;2023-08-08T08:48:49;3.15;;;1.45;;
76850;SDS011;65824;43.726;20.692;2023-08-08T08:51:16;4.15;;;1.50;;
76850;SDS011;65824;43.726;20.692;2023-08-08T08:53:43;2.72;;;1.33;;
76850;SDS011;65824;43.726;20.692;2023-08-08T08:56:11;2.80;;;1.40;;
76850;SDS011;65824;43.726;20.692;2023-08-08T08:58:43;3.95;;;1.60;;
76850;SDS011;65824;43.726;20.692;2023-08-08T09:01:08;3.00;;;1.40;;
76850;SDS011;65824;43.726;20.692;2023-08-08T09:03:38;3.78;;;1.73;;
76850;SDS011;65824;43.726;20.692;2023-08-08T09:06:04;4.13;;;1.75;;
76850;SDS011;65824;43.726;20.692;2023-08-08T09:08:30;4.22;;;1.80;;
76850;SDS011;65824;43.726;20.692;2023-08-08T09:10:58;5.20;;;1.92;;
76850;SDS011;65824;43.726;20.692;2023-08-08T09:13:26;3.38;;;1.55;;
76850;SDS011;65824;43.726;20.692;2023-08-08T09:15:52;3.25;;;1.63;;
76850;SDS011;65824;43.726;20.692;2023-08-08T09:18:18;4.35;;;1.80;;
76850;SDS011;65824;43.726;20.692;2023-08-08T09:20:50;2.80;;;1.55;;
76850;SDS011;65824;43.726;20.692;2023-08-08T09:23:16;3.63;;;1.38;;
76850;SDS011;65824;43.726;20.692;2023-08-08T09:25:44;4.22;;;1.65;;
76850;SDS011;65824;43.726;20.692;2023-08-08T09:28:10;2.97;;;1.45;;
76850;SDS011;65824;43.726;20.692;2023-08-08T09:30:36;3.17;;;1.80;;
76850;SDS011;65824;43.726;20.692;2023-08-08T09:33:03;3.25;;;1.50;;
76850;SDS011;65824;43.726;20.692;2023-08-08T09:35:29;3.13;;;1.20;;
76850;SDS011;65824;43.726;20.692;2023-08-08T09:37:56;4.57;;;2.00;;
76850;SDS011;65824;43.726;20.692;2023-08-08T09:40:22;3.97;;;1.90;;
76850;SDS011;65824;43.726;20.692;2023-08-08T09:42:50;3.35;;;1.70;;
76850;SDS011;65824;43.726;20.692;2023-08-08T09:45:18;4.63;;;1.48;;
76850;SDS011;65824;43.726;20.692;2023-08-08T09:47:45;2.92;;;1.30;;
76850;SDS011;65824;43.726;20.692;2023-08-08T09:50:13;3.42;;;1.90;;
76850;SDS011;65824;43.726;20.692;2023-08-08T09:52:39;3.65;;;1.88;;
76850;SDS011;65824;43.726;20.692;2023-08-08T09:55:06;4.88;;;2.10;;
76850;SDS011;65824;43.726;20.692;2023-08-08T09:57:32;3.33;;;1.83;;
76850;SDS011;65824;43.726;20.692;2023-08-08T09:59:59;4.00;;;1.60;;
76850;SDS011;65824;43.726;20.692;2023-08-08T10:02:25;4.55;;;1.73;;
76850;SDS011;65824;43.726;20.692;2023-08-08T10:04:53;3.28;;;1.58;;
76850;SDS011;65824;43.726;20.692;2023-08-08T10:07:19;4.25;;;1.65;;
76850;SDS011;65824;43.726;20.692;2023-08-08T10:09:44;7.13;;;1.95;;
76850;SDS011;65824;43.726;20.692;2023-08-08T10:12:10;4.40;;;2.35;;
76850;SDS011;65824;43.726;20.692;2023-08-08T10:14:37;3.92;;;1.90;;
76850;SDS011;65824;43.726;20.692;2023-08-08T10:17:03;4.40;;;1.70;;
76850;SDS011;65824;43.726;20.692;2023-08-08T10:19:33;3.60;;;2.05;;
76850;SDS011;65824;43.726;20.692;2023-08-08T10:22:03;4.10;;;2.42;;
76850;SDS011;65824;43.726;20.692;2023-08-08T10:24:33;3.05;;;1.70;;
76850;SDS011;65824;43.726;20.692;2023-08-08T10:27:00;4.93;;;1.83;;
76850;SDS011;65824;43.726;20.692;2023-08-08T10:29:28;5.80;;;2.15;;
76850;SDS011;65824;43.726;20.692;2023-08-08T10:34:44;3.22;;;1.90;;
76850;SDS011;65824;43.726;20.692;2023-08-08T10:37:12;5.18;;;2.55;;
76850;SDS011;65824;43.726;20.692;2023-08-08T10:39:50;4.45;;;1.70;;
76850;SDS011;65824;43.726;20.692;2023-08-08T10:42:19;6.72;;;2.50;;
76850;SDS011;65824;43.726;20.692;2023-08-08T10:44:54;2.95;;;1.30;;
76850;SDS011;65824;43.726;20.692;2023-08-08T10:47:31;3.15;;;1.30;;
76850;SDS011;65824;43.726;20.692;2023-08-08T10:50:11;3.15;;;1.33;;
76850;SDS011;65824;43.726;20.692;2023-08-08T10:55:22;4.03;;;1.40;;
76850;SDS011;65824;43.726;20.692;2023-08-08T10:58:02;4.85;;;1.90;;
76850;SDS011;65824;43.726;20.692;2023-08-08T11:00:36;4.47;;;1.75;;
76850;SDS011;65824;43.726;20.692;2023-08-08T11:03:08;3.08;;;1.75;;
76850;SDS011;65824;43.726;20.692;2023-08-08T11:05:34;5.47;;;2.53;;
76850;SDS011;65824;43.726;20.692;2023-08-08T11:08:01;3.38;;;1.90;;
76850;SDS011;65824;43.726;20.692;2023-08-08T11:10:29;3.22;;;1.70;;
76850;SDS011;65824;43.726;20.692;2023-08-08T11:15:28;4.70;;;1.95;;
76850;SDS011;65824;43.726;20.692;2023-08-08T11:17:57;6.35;;;2.40;;
76850;SDS011;65824;43.726;20.692;2023-08-08T11:20:28;4.65;;;2.60;;
76850;SDS011;65824;43.726;20.692;2023-08-08T11:22:55;4.97;;;2.40;;
76850;SDS011;65824;43.726;20.692;2023-08-08T11:25:21;4.88;;;2.45;;
76850;SDS011;65824;43.726;20.692;2023-08-08T11:27:54;5.60;;;2.28;;
76850;SDS011;65824;43.726;20.692;2023-08-08T11:30:20;4.00;;;2.20;;
76850;SDS011;65824;43.726;20.692;2023-08-08T11:32:48;3.28;;;2.08;;
76850;SDS011;65824;43.726;20.692;2023-08-08T11:35:23;3.58;;;2.50;;
76850;SDS011;65824;43.726;20.692;2023-08-08T11:37:50;4.30;;;2.60;;
76850;SDS011;65824;43.726;20.692;2023-08-08T11:40:25;4.60;;;2.70;;
76850;SDS011;65824;43.726;20.692;2023-08-08T11:42:51;4.90;;;2.63;;
76850;SDS011;65824;43.726;20.692;2023-08-08T11:45:17;4.18;;;2.33;;
76850;SDS011;65824;43.726;20.692;2023-08-08T11:47:47;5.70;;;2.30;;
76850;SDS011;65824;43.726;20.692;2023-08-08T11:50:15;7.45;;;3.30;;
76850;SDS011;65824;43.726;20.692;2023-08-08T11:52:45;6.75;;;2.80;;
76850;SDS011;65824;43.726;20.692;2023-08-08T11:55:11;6.63;;;2.97;;
76850;SDS011;65824;43.726;20.692;2023-08-08T11:57:38;5.03;;;3.40;;
76850;SDS011;65824;43.726;20.692;2023-08-08T12:00:07;4.90;;;2.88;;
76850;SDS011;65824;43.726;20.692;2023-08-08T12:02:37;5.90;;;3.67;;
76850;SDS011;65824;43.726;20.692;2023-08-08T12:05:06;7.80;;;5.80;;
76850;SDS011;65824;43.726;20.692;2023-08-08T12:07:37;8.90;;;6.03;;
76850;SDS011;65824;43.726;20.692;2023-08-08T12:10:05;5.88;;;3.47;;
76850;SDS011;65824;43.726;20.692;2023-08-08T12:12:31;5.55;;;3.10;;
76850;SDS011;65824;43.726;20.692;2023-08-08T12:15:06;5.75;;;3.35;;
76850;SDS011;65824;43.726;20.692;2023-08-08T12:17:33;4.88;;;3.13;;
76850;SDS011;65824;43.726;20.692;2023-08-08T12:20:01;5.32;;;3.10;;
76850;SDS011;65824;43.726;20.692;2023-08-08T12:22:28;6.63;;;2.92;;
76850;SDS011;65824;43.726;20.692;2023-08-08T12:24:54;5.20;;;3.40;;
76850;SDS011;65824;43.726;20.692;2023-08-08T12:27:19;4.65;;;3.10;;
76850;SDS011;65824;43.726;20.692;2023-08-08T12:29:45;8.10;;;3.67;;
76850;SDS011;65824;43.726;20.692;2023-08-08T12:32:11;4.28;;;2.97;;
76850;SDS011;65824;43.726;20.692;2023-08-08T12:34:38;4.25;;;2.88;;
76850;SDS011;65824;43.726;20.692;2023-08-08T12:37:04;3.78;;;2.40;;
76850;SDS011;65824;43.726;20.692;2023-08-08T12:39:30;5.88;;;2.35;;
76850;SDS011;65824;43.726;20.692;2023-08-08T12:41:56;3.78;;;2.20;;
76850;SDS011;65824;43.726;20.692;2023-08-08T12:44:22;6.97;;;2.92;;
76850;SDS011;65824;43.726;20.692;2023-08-08T12:46:49;4.40;;;2.55;;
76850;SDS011;65824;43.726;20.692;2023-08-08T12:49:15;6.03;;;2.45;;
76850;SDS011;65824;43.726;20.692;2023-08-08T12:51:40;6.88;;;2.65;;
76850;SDS011;65824;43.726;20.692;2023-08-08T12:54:06;8.20;;;4.95;;
76850;SDS011;65824;43.726;20.692;2023-08-08T12:56:32;8.43;;;4.70;;
76850;SDS011;65824;43.726;20.692;2023-08-08T12:58:58;4.70;;;2.78;;
76850;SDS011;65824;43.726;20.692;2023-08-08T13:01:23;5.15;;;2.53;;
76850;SDS011;65824;43.726;20.692;2023-08-08T13:03:50;5.30;;;3.58;;
76850;SDS011;65824;43.726;20.692;2023-08-08T13:06:17;5.47;;;3.20;;
76850;SDS011;65824;43.726;20.692;2023-08-08T13:08:42;8.73;;;6.00;;
76850;SDS011;65824;43.726;20.692;2023-08-08T13:11:08;18.25;;;12.27;;
76850;SDS011;65824;43.726;20.692;2023-08-08T13:13:34;6.03;;;4.25;;
76850;SDS011;65824;43.726;20.692;2023-08-08T13:15:59;7.95;;;6.07;;
76850;SDS011;65824;43.726;20.692;2023-08-08T13:18:25;7.68;;;5.15;;
76850;SDS011;65824;43.726;20.692;2023-08-08T13:20:50;6.80;;;4.38;;
76850;SDS011;65824;43.726;20.692;2023-08-08T13:23:16;9.02;;;5.80;;
76850;SDS011;65824;43.726;20.692;2023-08-08T13:25:41;7.03;;;4.47;;
76850;SDS011;65824;43.726;20.692;2023-08-08T13:28:07;4.63;;;2.90;;
76850;SDS011;65824;43.726;20.692;2023-08-08T13:30:33;5.05;;;2.70;;
76850;SDS011;65824;43.726;20.692;2023-08-08T13:33:01;5.05;;;3.03;;
76850;SDS011;65824;43.726;20.692;2023-08-08T13:35:26;7.13;;;3.80;;
76850;SDS011;65824;43.726;20.692;2023-08-08T13:37:52;6.60;;;4.40;;
76850;SDS011;65824;43.726;20.692;2023-08-08T13:40:19;7.65;;;3.20;;
76850;SDS011;65824;43.726;20.692;2023-08-08T13:42:46;5.65;;;3.33;;
76850;SDS011;65824;43.726;20.692;2023-08-08T13:45:13;5.00;;;3.17;;
76850;SDS011;65824;43.726;20.692;2023-08-08T13:47:40;4.07;;;2.65;;
76850;SDS011;65824;43.726;20.692;2023-08-08T13:50:05;4.15;;;2.67;;
76850;SDS011;65824;43.726;20.692;2023-08-08T13:52:33;8.15;;;4.38;;
76850;SDS011;65824;43.726;20.692;2023-08-08T13:54:58;16.77;;;8.45;;
76850;SDS011;65824;43.726;20.692;2023-08-08T13:57:25;7.10;;;4.55;;
76850;SDS011;65824;43.726;20.692;2023-08-08T13:59:51;6.05;;;3.25;;
76850;SDS011;65824;43.726;20.692;2023-08-08T14:02:16;7.88;;;4.07;;
76850;SDS011;65824;43.726;20.692;2023-08-08T14:04:43;8.73;;;4.68;;
76850;SDS011;65824;43.726;20.692;2023-08-08T14:07:09;8.52;;;5.65;;
76850;SDS011;65824;43.726;20.692;2023-08-08T14:09:35;8.88;;;4.75;;
76850;SDS011;65824;43.726;20.692;2023-08-08T14:12:01;7.72;;;3.63;;
76850;SDS011;65824;43.726;20.692;2023-08-08T14:14:27;4.85;;;2.50;;
76850;SDS011;65824;43.726;20.692;2023-08-08T14:16:52;4.75;;;2.75;;
76850;SDS011;65824;43.726;20.692;2023-08-08T14:19:18;4.68;;;2.95;;
76850;SDS011;65824;43.726;20.692;2023-08-08T14:21:44;5.43;;;3.33;;
76850;SDS011;65824;43.726;20.692;2023-08-08T14:24:09;4.75;;;3.40;;
76850;SDS011;65824;43.726;20.692;2023-08-08T14:26:36;9.63;;;5.75;;
76850;SDS011;65824;43.726;20.692;2023-08-08T14:29:02;9.90;;;6.55;;
76850;SDS011;65824;43.726;20.692;2023-08-08T14:31:27;8.68;;;5.20;;
76850;SDS011;65824;43.726;20.692;2023-08-08T14:33:53;6.50;;;3.72;;
76850;SDS011;65824;43.726;20.692;2023-08-08T14:36:19;4.22;;;3.03;;
76850;SDS011;65824;43.726;20.692;2023-08-08T14:38:52;4.07;;;2.58;;